Ilyas Efendiyev — 9HES8 — position and weather

sailwx.info

Track history (hours):
 
Tides and Currents Weather Stations Pressure Air Temp Water Temp Dewpoint Dewpoint Depression Visibility Wind Speed Wind Dir Waves Ship Positions

Ilyas Efendiyev

Last reported at 2015-Jul-29 13:19 UTC. Time now 2015-Jul-31 07:23 UTC.
Position N 43°41' E 034°01'.

Length 140 m; draft 3.9 m.

Type: Cargo ship. MMSI: 215901000.

Date/timePositionNaut miles runAvg speedWind from/ knotsBaromVisibWave heightAir tempDewpointWater temp
2015-Jul-29 13:19N 43°41' E 034°01'7 9.3
2015-Jul-29 12:32N 43°45' E 034°10'9 9.0
2015-Jul-29 11:34N 43°50' E 034°20'9 8.9
2015-Jul-29 10:34N 43°55' E 034°31'9 8.8
2015-Jul-29 09:34N 43°59' E 034°41'9 8.7
2015-Jul-29 08:34N 44°04' E 034°51'9 9.2
2015-Jul-29 07:33N 44°09' E 035°02'9 9.2
2015-Jul-29 06:34N 44°14' E 035°12'9 9.1
2015-Jul-29 05:33N 44°19' E 035°23'9 8.8
2015-Jul-29 04:34N 44°24' E 035°33'13 8.8
2015-Jul-29 03:05N 44°31' E 035°49'23 9.0
2015-Jul-29 00:33N 44°43' E 036°16'9 8.9
2015-Jul-28 23:33N 44°48' E 036°26'  
2015-Jul-22 17:12N 44°21' E 035°00'5 8.2
2015-Jul-22 16:33N 44°19' E 034°54'8 8.2
2015-Jul-22 15:33N 44°15' E 034°43'9 8.9
2015-Jul-22 14:32N 44°11' E 034°32'9 8.8
2015-Jul-22 13:33N 44°07' E 034°22'302 8.6
2015-Jul-21 02:31N 41°00' E 028°60'7 6.7
2015-Jul-21 01:29N 40°54' E 028°57'3 0.8
2015-Jul-20 21:31N 40°51' E 028°56'  
Track history (hours):
 
Tides and Currents Weather Stations Pressure Air Temp Water Temp Dewpoint Dewpoint Depression Visibility Wind Speed Wind Dir Waves Ship Positions

Ilyas Efendiyev

Last reported at 2015-Jul-29 13:19 UTC. Time now 2015-Jul-31 07:23 UTC.
Position N 43°41' E 034°01'.

Length 140 m; draft 3.9 m.

Type: Cargo ship. MMSI: 215901000.

Date/timePositionNaut miles runAvg speedWind from/ knotsBaromVisibWave heightAir tempDewpointWater temp
2015-Jul-29 13:19N 43°41' E 034°01'7 9.3
2015-Jul-29 12:32N 43°45' E 034°10'9 9.0
2015-Jul-29 11:34N 43°50' E 034°20'9 8.9
2015-Jul-29 10:34N 43°55' E 034°31'9 8.8
2015-Jul-29 09:34N 43°59' E 034°41'9 8.7
2015-Jul-29 08:34N 44°04' E 034°51'9 9.2
2015-Jul-29 07:33N 44°09' E 035°02'9 9.2
2015-Jul-29 06:34N 44°14' E 035°12'9 9.1
2015-Jul-29 05:33N 44°19' E 035°23'9 8.8
2015-Jul-29 04:34N 44°24' E 035°33'13 8.8
2015-Jul-29 03:05N 44°31' E 035°49'23 9.0
2015-Jul-29 00:33N 44°43' E 036°16'9 8.9
2015-Jul-28 23:33N 44°48' E 036°26'  
2015-Jul-22 17:12N 44°21' E 035°00'5 8.2
2015-Jul-22 16:33N 44°19' E 034°54'8 8.2
2015-Jul-22 15:33N 44°15' E 034°43'9 8.9
2015-Jul-22 14:32N 44°11' E 034°32'9 8.8
2015-Jul-22 13:33N 44°07' E 034°22'302 8.6
2015-Jul-21 02:31N 41°00' E 028°60'7 6.7
2015-Jul-21 01:29N 40°54' E 028°57'3 0.8
2015-Jul-20 21:31N 40°51' E 028°56'  

Dump ship's entire track history